sensor_id;sensor_type;location;lat;lon;timestamp;temperature;humidity
75380;HTU21D;64279;44.714;37.756;2022-11-15T00:00:36;8.71;77.64
75380;HTU21D;64279;44.714;37.756;2022-11-15T00:01:58;8.68;77.64
75380;HTU21D;64279;44.714;37.756;2022-11-15T00:03:21;8.68;77.75
75380;HTU21D;64279;44.714;37.756;2022-11-15T00:04:43;8.68;77.63
75380;HTU21D;64279;44.714;37.756;2022-11-15T00:06:04;8.68;77.58
75380;HTU21D;64279;44.714;37.756;2022-11-15T00:07:26;8.67;77.71
75380;HTU21D;64279;44.714;37.756;2022-11-15T00:09:07;8.67;77.79
75380;HTU21D;64279;44.714;37.756;2022-11-15T00:10:28;8.66;77.69
75380;HTU21D;64279;44.714;37.756;2022-11-15T00:11:51;8.67;77.72
75380;HTU21D;64279;44.714;37.756;2022-11-15T00:13:13;8.67;77.69
75380;HTU21D;64279;44.714;37.756;2022-11-15T00:14:34;8.66;77.64
75380;HTU21D;64279;44.714;37.756;2022-11-15T00:15:59;8.67;77.53
75380;HTU21D;64279;44.714;37.756;2022-11-15T00:17:21;8.66;77.53
75380;HTU21D;64279;44.714;37.756;2022-11-15T00:18:42;8.64;77.69
75380;HTU21D;64279;44.714;37.756;2022-11-15T00:20:10;8.66;77.66
75380;HTU21D;64279;44.714;37.756;2022-11-15T00:21:32;8.65;77.89
75380;HTU21D;64279;44.714;37.756;2022-11-15T00:22:53;8.66;77.76
75380;HTU21D;64279;44.714;37.756;2022-11-15T00:24:14;8.66;77.68
75380;HTU21D;64279;44.714;37.756;2022-11-15T00:25:36;8.67;77.80
75380;HTU21D;64279;44.714;37.756;2022-11-15T00:26:57;8.66;77.71
75380;HTU21D;64279;44.714;37.756;2022-11-15T00:28:18;8.67;77.67
75380;HTU21D;64279;44.714;37.756;2022-11-15T00:29:39;8.66;77.72
75380;HTU21D;64279;44.714;37.756;2022-11-15T00:31:06;8.67;77.74
75380;HTU21D;64279;44.714;37.756;2022-11-15T00:32:31;8.65;77.70
75380;HTU21D;64279;44.714;37.756;2022-11-15T00:33:53;8.66;77.67
75380;HTU21D;64279;44.714;37.756;2022-11-15T00:35:14;8.64;77.71
75380;HTU21D;64279;44.714;37.756;2022-11-15T00:36:35;8.65;77.72
75380;HTU21D;64279;44.714;37.756;2022-11-15T00:37:56;8.65;77.76
75380;HTU21D;64279;44.714;37.756;2022-11-15T00:39:18;8.66;77.65
75380;HTU21D;64279;44.714;37.756;2022-11-15T00:40:39;8.64;77.68
75380;HTU21D;64279;44.714;37.756;2022-11-15T00:42:00;8.63;77.72
75380;HTU21D;64279;44.714;37.756;2022-11-15T00:43:22;8.62;77.68
75380;HTU21D;64279;44.714;37.756;2022-11-15T00:44:43;8.64;77.64
75380;HTU21D;64279;44.714;37.756;2022-11-15T00:46:06;8.63;77.46
75380;HTU21D;64279;44.714;37.756;2022-11-15T00:47:29;8.63;77.40
75380;HTU21D;64279;44.714;37.756;2022-11-15T00:48:50;8.62;77.46
75380;HTU21D;64279;44.714;37.756;2022-11-15T00:50:11;8.62;77.41
75380;HTU21D;64279;44.714;37.756;2022-11-15T00:51:35;8.61;77.43
75380;HTU21D;64279;44.714;37.756;2022-11-15T00:52:56;8.61;77.51
75380;HTU21D;64279;44.714;37.756;2022-11-15T00:54:17;8.59;77.53
75380;HTU21D;64279;44.714;37.756;2022-11-15T00:55:38;8.61;77.57
75380;HTU21D;64279;44.714;37.756;2022-11-15T00:57:00;8.59;77.61
75380;HTU21D;64279;44.714;37.756;2022-11-15T00:58:21;8.60;77.60
75380;HTU21D;64279;44.714;37.756;2022-11-15T00:59:42;8.58;77.67
75380;HTU21D;64279;44.714;37.756;2022-11-15T01:01:12;8.57;77.67
75380;HTU21D;64279;44.714;37.756;2022-11-15T01:02:34;8.57;77.68
75380;HTU21D;64279;44.714;37.756;2022-11-15T01:03:55;8.58;77.61
75380;HTU21D;64279;44.714;37.756;2022-11-15T01:05:21;8.56;77.71
75380;HTU21D;64279;44.714;37.756;2022-11-15T01:06:42;8.56;77.72
75380;HTU21D;64279;44.714;37.756;2022-11-15T01:08:03;8.57;77.68
75380;HTU21D;64279;44.714;37.756;2022-11-15T01:09:25;8.55;77.81
75380;HTU21D;64279;44.714;37.756;2022-11-15T01:10:46;8.56;77.73
75380;HTU21D;64279;44.714;37.756;2022-11-15T01:12:07;8.55;77.79
75380;HTU21D;64279;44.714;37.756;2022-11-15T01:13:32;8.53;77.76
75380;HTU21D;64279;44.714;37.756;2022-11-15T01:14:54;8.52;77.83
75380;HTU21D;64279;44.714;37.756;2022-11-15T01:16:17;8.51;77.74
75380;HTU21D;64279;44.714;37.756;2022-11-15T01:17:39;8.52;77.75
75380;HTU21D;64279;44.714;37.756;2022-11-15T01:19:00;8.51;77.80
75380;HTU21D;64279;44.714;37.756;2022-11-15T01:20:21;8.50;77.75
75380;HTU21D;64279;44.714;37.756;2022-11-15T01:21:42;8.50;77.74
75380;HTU21D;64279;44.714;37.756;2022-11-15T01:23:03;8.49;77.74
75380;HTU21D;64279;44.714;37.756;2022-11-15T01:24:25;8.49;77.69
75380;HTU21D;64279;44.714;37.756;2022-11-15T01:25:46;8.49;77.67
75380;HTU21D;64279;44.714;37.756;2022-11-15T01:27:07;8.48;77.69
75380;HTU21D;64279;44.714;37.756;2022-11-15T01:28:36;8.48;77.61
75380;HTU21D;64279;44.714;37.756;2022-11-15T01:29:58;8.46;77.69
75380;HTU21D;64279;44.714;37.756;2022-11-15T01:31:25;8.45;77.72
75380;HTU21D;64279;44.714;37.756;2022-11-15T01:32:56;8.44;77.70
75380;HTU21D;64279;44.714;37.756;2022-11-15T01:34:17;8.44;77.51
75380;HTU21D;64279;44.714;37.756;2022-11-15T01:35:39;8.44;77.59
75380;HTU21D;64279;44.714;37.756;2022-11-15T01:37:01;8.44;77.63
75380;HTU21D;64279;44.714;37.756;2022-11-15T01:38:22;8.42;77.63
75380;HTU21D;64279;44.714;37.756;2022-11-15T01:39:44;8.43;77.59
75380;HTU21D;64279;44.714;37.756;2022-11-15T01:41:05;8.41;77.59
75380;HTU21D;64279;44.714;37.756;2022-11-15T01:42:26;8.42;77.56
75380;HTU21D;64279;44.714;37.756;2022-11-15T01:43:53;8.41;77.56
75380;HTU21D;64279;44.714;37.756;2022-11-15T01:45:16;8.39;77.56
75380;HTU21D;64279;44.714;37.756;2022-11-15T01:46:37;8.38;77.67
75380;HTU21D;64279;44.714;37.756;2022-11-15T01:47:59;8.39;77.60
75380;HTU21D;64279;44.714;37.756;2022-11-15T01:49:21;8.37;77.57
75380;HTU21D;64279;44.714;37.756;2022-11-15T01:50:43;8.37;77.50
75380;HTU21D;64279;44.714;37.756;2022-11-15T01:52:11;8.35;77.56
75380;HTU21D;64279;44.714;37.756;2022-11-15T01:53:34;8.36;77.56
75380;HTU21D;64279;44.714;37.756;2022-11-15T01:55:26;8.36;77.59
75380;HTU21D;64279;44.714;37.756;2022-11-15T01:56:56;8.34;77.60
75380;HTU21D;64279;44.714;37.756;2022-11-15T01:58:18;8.34;77.60
75380;HTU21D;64279;44.714;37.756;2022-11-15T01:59:43;8.32;77.59
75380;HTU21D;64279;44.714;37.756;2022-11-15T02:01:06;8.33;77.63
75380;HTU21D;64279;44.714;37.756;2022-11-15T02:02:28;8.32;77.55
75380;HTU21D;64279;44.714;37.756;2022-11-15T02:03:58;8.32;77.62
75380;HTU21D;64279;44.714;37.756;2022-11-15T02:05:19;8.31;77.57
75380;HTU21D;64279;44.714;37.756;2022-11-15T02:06:41;8.29;77.60
75380;HTU21D;64279;44.714;37.756;2022-11-15T02:08:03;8.29;77.50
75380;HTU21D;64279;44.714;37.756;2022-11-15T02:09:24;8.29;77.58
75380;HTU21D;64279;44.714;37.756;2022-11-15T02:10:46;8.27;77.53
75380;HTU21D;64279;44.714;37.756;2022-11-15T02:12:09;8.28;77.44
75380;HTU21D;64279;44.714;37.756;2022-11-15T02:13:30;8.27;77.50
75380;HTU21D;64279;44.714;37.756;2022-11-15T02:15:12;8.27;77.55
75380;HTU21D;64279;44.714;37.756;2022-11-15T02:16:51;8.24;77.54
75380;HTU21D;64279;44.714;37.756;2022-11-15T02:18:34;8.24;77.66
75380;HTU21D;64279;44.714;37.756;2022-11-15T02:22:14;8.23;77.60
75380;HTU21D;64279;44.714;37.756;2022-11-15T02:25:47;8.22;77.52
75380;HTU21D;64279;44.714;37.756;2022-11-15T02:30:41;8.20;77.63
75380;HTU21D;64279;44.714;37.756;2022-11-15T02:32:23;8.19;77.65
75380;HTU21D;64279;44.714;37.756;2022-11-15T02:37:15;8.18;77.56
75380;HTU21D;64279;44.714;37.756;2022-11-15T02:38:46;8.17;77.55
75380;HTU21D;64279;44.714;37.756;2022-11-15T02:41:56;8.17;77.53
75380;HTU21D;64279;44.714;37.756;2022-11-15T02:43:36;8.16;77.45
75380;HTU21D;64279;44.714;37.756;2022-11-15T02:45:39;8.16;77.63
75380;HTU21D;64279;44.714;37.756;2022-11-15T02:47:06;8.16;77.69
75380;HTU21D;64279;44.714;37.756;2022-11-15T02:48:34;8.15;77.76
75380;HTU21D;64279;44.714;37.756;2022-11-15T02:50:00;8.14;77.70
75380;HTU21D;64279;44.714;37.756;2022-11-15T02:51:22;8.13;77.87
75380;HTU21D;64279;44.714;37.756;2022-11-15T02:52:47;8.13;77.72
75380;HTU21D;64279;44.714;37.756;2022-11-15T02:54:15;8.12;77.84
75380;HTU21D;64279;44.714;37.756;2022-11-15T02:55:45;8.12;77.71
75380;HTU21D;64279;44.714;37.756;2022-11-15T02:57:15;8.12;77.76
75380;HTU21D;64279;44.714;37.756;2022-11-15T02:59:01;8.11;77.81
75380;HTU21D;64279;44.714;37.756;2022-11-15T03:00:30;8.11;77.79
75380;HTU21D;64279;44.714;37.756;2022-11-15T03:06:01;8.12;77.65
75380;HTU21D;64279;44.714;37.756;2022-11-15T03:11:18;8.07;77.60
75380;HTU21D;64279;44.714;37.756;2022-11-15T03:13:09;8.08;77.59
75380;HTU21D;64279;44.714;37.756;2022-11-15T03:17:56;8.07;77.57
75380;HTU21D;64279;44.714;37.756;2022-11-15T03:19:40;8.04;77.61
75380;HTU21D;64279;44.714;37.756;2022-11-15T03:21:08;8.05;77.58
75380;HTU21D;64279;44.714;37.756;2022-11-15T03:22:40;8.04;77.65
75380;HTU21D;64279;44.714;37.756;2022-11-15T03:24:06;8.02;77.68
75380;HTU21D;64279;44.714;37.756;2022-11-15T03:25:28;8.03;77.72
75380;HTU21D;64279;44.714;37.756;2022-11-15T03:26:53;8.03;77.79
75380;HTU21D;64279;44.714;37.756;2022-11-15T03:28:23;8.02;77.85
75380;HTU21D;64279;44.714;37.756;2022-11-15T03:29:50;8.02;77.78
75380;HTU21D;64279;44.714;37.756;2022-11-15T03:31:15;8.01;77.68
75380;HTU21D;64279;44.714;37.756;2022-11-15T03:32:57;8.02;77.75
75380;HTU21D;64279;44.714;37.756;2022-11-15T03:34:28;8.02;77.72
75380;HTU21D;64279;44.714;37.756;2022-11-15T03:35:52;8.03;77.76
75380;HTU21D;64279;44.714;37.756;2022-11-15T03:37:15;8.01;77.76
75380;HTU21D;64279;44.714;37.756;2022-11-15T03:38:38;8.02;77.82
75380;HTU21D;64279;44.714;37.756;2022-11-15T03:40:00;8.01;77.74
75380;HTU21D;64279;44.714;37.756;2022-11-15T03:41:33;8.01;77.75
75380;HTU21D;64279;44.714;37.756;2022-11-15T03:43:55;8.00;77.71
75380;HTU21D;64279;44.714;37.756;2022-11-15T03:46:17;7.99;77.81
75380;HTU21D;64279;44.714;37.756;2022-11-15T03:47:45;7.99;77.85
75380;HTU21D;64279;44.714;37.756;2022-11-15T03:49:13;7.98;77.83
75380;HTU21D;64279;44.714;37.756;2022-11-15T03:50:36;7.98;77.83
75380;HTU21D;64279;44.714;37.756;2022-11-15T03:52:03;7.98;77.87
75380;HTU21D;64279;44.714;37.756;2022-11-15T03:53:25;7.97;77.80
75380;HTU21D;64279;44.714;37.756;2022-11-15T03:54:54;7.96;77.74
75380;HTU21D;64279;44.714;37.756;2022-11-15T03:56:16;7.97;77.85
75380;HTU21D;64279;44.714;37.756;2022-11-15T03:57:38;7.96;77.87
75380;HTU21D;64279;44.714;37.756;2022-11-15T03:58:59;7.96;77.90
75380;HTU21D;64279;44.714;37.756;2022-11-15T04:00:21;7.94;77.90
75380;HTU21D;64279;44.714;37.756;2022-11-15T04:01:42;7.94;77.92
75380;HTU21D;64279;44.714;37.756;2022-11-15T04:03:06;7.94;77.84
75380;HTU21D;64279;44.714;37.756;2022-11-15T04:04:28;7.90;77.87
75380;HTU21D;64279;44.714;37.756;2022-11-15T04:05:50;7.92;77.89
75380;HTU21D;64279;44.714;37.756;2022-11-15T04:07:11;7.92;77.93
75380;HTU21D;64279;44.714;37.756;2022-11-15T04:08:33;7.91;77.96
75380;HTU21D;64279;44.714;37.756;2022-11-15T04:09:54;7.91;78.02
75380;HTU21D;64279;44.714;37.756;2022-11-15T04:11:24;7.91;78.11
75380;HTU21D;64279;44.714;37.756;2022-11-15T04:12:46;7.91;78.10
75380;HTU21D;64279;44.714;37.756;2022-11-15T04:14:08;7.91;78.24
75380;HTU21D;64279;44.714;37.756;2022-11-15T04:15:30;7.90;78.44
75380;HTU21D;64279;44.714;37.756;2022-11-15T04:16:51;7.91;78.47
75380;HTU21D;64279;44.714;37.756;2022-11-15T04:18:13;7.91;78.47
75380;HTU21D;64279;44.714;37.756;2022-11-15T04:19:34;7.92;78.51
75380;HTU21D;64279;44.714;37.756;2022-11-15T04:21:14;7.91;78.62
75380;HTU21D;64279;44.714;37.756;2022-11-15T04:22:58;7.92;78.65
75380;HTU21D;64279;44.714;37.756;2022-11-15T04:24:38;7.94;78.79
75380;HTU21D;64279;44.714;37.756;2022-11-15T04:26:01;7.94;78.79
75380;HTU21D;64279;44.714;37.756;2022-11-15T04:27:23;7.98;78.90
75380;HTU21D;64279;44.714;37.756;2022-11-15T04:28:44;7.98;78.85
75380;HTU21D;64279;44.714;37.756;2022-11-15T04:30:24;8.02;78.82
75380;HTU21D;64279;44.714;37.756;2022-11-15T04:31:45;8.02;78.85
75380;HTU21D;64279;44.714;37.756;2022-11-15T04:33:06;8.05;78.85
75380;HTU21D;64279;44.714;37.756;2022-11-15T04:34:27;8.06;78.76
75380;HTU21D;64279;44.714;37.756;2022-11-15T04:35:50;8.08;78.75
75380;HTU21D;64279;44.714;37.756;2022-11-15T04:37:30;8.11;78.64
75380;HTU21D;64279;44.714;37.756;2022-11-15T04:38:51;8.13;78.68
75380;HTU21D;64279;44.714;37.756;2022-11-15T04:40:13;8.14;78.66
75380;HTU21D;64279;44.714;37.756;2022-11-15T04:41:34;8.16;78.60
75380;HTU21D;64279;44.714;37.756;2022-11-15T04:42:55;8.19;78.65
75380;HTU21D;64279;44.714;37.756;2022-11-15T04:44:23;8.20;78.57
75380;HTU21D;64279;44.714;37.756;2022-11-15T04:45:45;8.22;78.52
75380;HTU21D;64279;44.714;37.756;2022-11-15T04:47:06;8.24;78.42
75380;HTU21D;64279;44.714;37.756;2022-11-15T04:48:27;8.27;78.39
75380;HTU21D;64279;44.714;37.756;2022-11-15T04:49:49;8.28;78.49
75380;HTU21D;64279;44.714;37.756;2022-11-15T04:51:10;8.29;78.47
75380;HTU21D;64279;44.714;37.756;2022-11-15T04:52:31;8.30;78.37
75380;HTU21D;64279;44.714;37.756;2022-11-15T04:53:52;8.30;78.30
75380;HTU21D;64279;44.714;37.756;2022-11-15T04:55:13;8.33;78.34
75380;HTU21D;64279;44.714;37.756;2022-11-15T04:56:35;8.35;78.12
75380;HTU21D;64279;44.714;37.756;2022-11-15T04:58:00;8.35;78.27
75380;HTU21D;64279;44.714;37.756;2022-11-15T04:59:21;8.34;78.16
75380;HTU21D;64279;44.714;37.756;2022-11-15T05:00:42;8.35;78.21
75380;HTU21D;64279;44.714;37.756;2022-11-15T05:02:04;8.36;78.11
75380;HTU21D;64279;44.714;37.756;2022-11-15T05:03:25;8.38;78.05
75380;HTU21D;64279;44.714;37.756;2022-11-15T05:05:04;8.37;77.99
75380;HTU21D;64279;44.714;37.756;2022-11-15T05:06:26;8.41;77.98
75380;HTU21D;64279;44.714;37.756;2022-11-15T05:07:47;8.41;77.89
75380;HTU21D;64279;44.714;37.756;2022-11-15T05:09:09;8.42;77.83
75380;HTU21D;64279;44.714;37.756;2022-11-15T05:10:30;8.43;77.84
75380;HTU21D;64279;44.714;37.756;2022-11-15T05:11:52;8.45;77.76
75380;HTU21D;64279;44.714;37.756;2022-11-15T05:13:13;8.47;77.74
75380;HTU21D;64279;44.714;37.756;2022-11-15T05:14:34;8.49;77.69
75380;HTU21D;64279;44.714;37.756;2022-11-15T05:15:56;8.49;77.60
75380;HTU21D;64279;44.714;37.756;2022-11-15T05:17:16;8.51;77.67
75380;HTU21D;64279;44.714;37.756;2022-11-15T05:18:38;8.53;77.53
75380;HTU21D;64279;44.714;37.756;2022-11-15T05:20:01;8.57;77.44
75380;HTU21D;64279;44.714;37.756;2022-11-15T05:21:22;8.58;77.56
75380;HTU21D;64279;44.714;37.756;2022-11-15T05:22:44;8.60;77.53
75380;HTU21D;64279;44.714;37.756;2022-11-15T05:24:05;8.63;77.40
75380;HTU21D;64279;44.714;37.756;2022-11-15T05:25:27;8.66;77.34
75380;HTU21D;64279;44.714;37.756;2022-11-15T05:26:49;8.68;77.36
75380;HTU21D;64279;44.714;37.756;2022-11-15T05:28:10;8.71;77.19
75380;HTU21D;64279;44.714;37.756;2022-11-15T05:29:31;8.75;77.16
75380;HTU21D;64279;44.714;37.756;2022-11-15T05:30:52;8.77;77.13
75380;HTU21D;64279;44.714;37.756;2022-11-15T05:32:13;8.79;77.00
75380;HTU21D;64279;44.714;37.756;2022-11-15T05:33:39;8.81;77.05
75380;HTU21D;64279;44.714;37.756;2022-11-15T05:35:00;8.82;77.02
75380;HTU21D;64279;44.714;37.756;2022-11-15T05:36:38;8.87;76.99
75380;HTU21D;64279;44.714;37.756;2022-11-15T05:37:59;8.90;76.87
75380;HTU21D;64279;44.714;37.756;2022-11-15T05:39:21;8.92;76.81
75380;HTU21D;64279;44.714;37.756;2022-11-15T05:40:42;8.96;76.77
75380;HTU21D;64279;44.714;37.756;2022-11-15T05:42:07;8.97;76.67
75380;HTU21D;64279;44.714;37.756;2022-11-15T05:43:30;9.03;76.67
75380;HTU21D;64279;44.714;37.756;2022-11-15T05:44:53;9.05;76.57
75380;HTU21D;64279;44.714;37.756;2022-11-15T05:46:14;9.08;76.50
75380;HTU21D;64279;44.714;37.756;2022-11-15T05:47:37;9.10;76.48
75380;HTU21D;64279;44.714;37.756;2022-11-15T05:48:59;9.14;76.40
75380;HTU21D;64279;44.714;37.756;2022-11-15T05:50:20;9.16;76.36
75380;HTU21D;64279;44.714;37.756;2022-11-15T05:51:43;9.18;76.20
75380;HTU21D;64279;44.714;37.756;2022-11-15T05:53:05;9.20;76.27
75380;HTU21D;64279;44.714;37.756;2022-11-15T05:54:26;9.25;76.21
75380;HTU21D;64279;44.714;37.756;2022-11-15T05:55:48;9.27;76.18
75380;HTU21D;64279;44.714;37.756;2022-11-15T05:57:09;9.30;76.09
75380;HTU21D;64279;44.714;37.756;2022-11-15T05:58:32;9.34;75.95
75380;HTU21D;64279;44.714;37.756;2022-11-15T05:59:54;9.36;75.91
75380;HTU21D;64279;44.714;37.756;2022-11-15T06:01:15;9.39;75.83
75380;HTU21D;64279;44.714;37.756;2022-11-15T06:02:37;9.42;75.79
75380;HTU21D;64279;44.714;37.756;2022-11-15T06:03:58;9.46;75.66
75380;HTU21D;64279;44.714;37.756;2022-11-15T06:05:19;9.50;75.67
75380;HTU21D;64279;44.714;37.756;2022-11-15T06:06:41;9.53;75.49
75380;HTU21D;64279;44.714;37.756;2022-11-15T06:08:02;9.54;75.49
75380;HTU21D;64279;44.714;37.756;2022-11-15T06:09:24;9.59;75.47
75380;HTU21D;64279;44.714;37.756;2022-11-15T06:10:45;9.60;75.42
75380;HTU21D;64279;44.714;37.756;2022-11-15T06:12:06;9.62;75.13
75380;HTU21D;64279;44.714;37.756;2022-11-15T06:13:27;9.66;75.24
75380;HTU21D;64279;44.714;37.756;2022-11-15T06:14:49;9.69;75.13
75380;HTU21D;64279;44.714;37.756;2022-11-15T06:16:10;9.72;75.03
75380;HTU21D;64279;44.714;37.756;2022-11-15T06:17:31;9.76;74.94
75380;HTU21D;64279;44.714;37.756;2022-11-15T06:18:52;9.78;74.88
75380;HTU21D;64279;44.714;37.756;2022-11-15T06:20:14;9.82;74.72
75380;HTU21D;64279;44.714;37.756;2022-11-15T06:21:35;9.85;74.67
75380;HTU21D;64279;44.714;37.756;2022-11-15T06:22:58;9.89;74.73
75380;HTU21D;64279;44.714;37.756;2022-11-15T06:24:19;9.92;74.57
75380;HTU21D;64279;44.714;37.756;2022-11-15T06:25:40;9.94;74.61
75380;HTU21D;64279;44.714;37.756;2022-11-15T06:27:02;9.96;74.67
75380;HTU21D;64279;44.714;37.756;2022-11-15T06:28:23;10.00;74.31
75380;HTU21D;64279;44.714;37.756;2022-11-15T06:29:44;10.04;74.47
75380;HTU21D;64279;44.714;37.756;2022-11-15T06:31:09;10.07;74.25
75380;HTU21D;64279;44.714;37.756;2022-11-15T06:32:31;10.10;74.31
75380;HTU21D;64279;44.714;37.756;2022-11-15T06:33:52;10.14;74.27
75380;HTU21D;64279;44.714;37.756;2022-11-15T06:35:14;10.19;74.20
75380;HTU21D;64279;44.714;37.756;2022-11-15T06:36:35;10.23;74.16
75380;HTU21D;64279;44.714;37.756;2022-11-15T06:38:06;10.27;74.11
75380;HTU21D;64279;44.714;37.756;2022-11-15T06:39:36;10.31;73.99
75380;HTU21D;64279;44.714;37.756;2022-11-15T06:41:08;10.35;74.02
75380;HTU21D;64279;44.714;37.756;2022-11-15T06:42:30;10.38;74.02
75380;HTU21D;64279;44.714;37.756;2022-11-15T06:43:51;10.43;73.76
75380;HTU21D;64279;44.714;37.756;2022-11-15T06:45:12;10.49;73.73
75380;HTU21D;64279;44.714;37.756;2022-11-15T06:46:33;10.51;73.50
75380;HTU21D;64279;44.714;37.756;2022-11-15T06:47:55;10.55;73.35
75380;HTU21D;64279;44.714;37.756;2022-11-15T06:49:16;10.58;73.40
75380;HTU21D;64279;44.714;37.756;2022-11-15T06:50:37;10.62;73.28
75380;HTU21D;64279;44.714;37.756;2022-11-15T06:51:58;10.66;73.21
75380;HTU21D;64279;44.714;37.756;2022-11-15T06:53:20;10.68;73.12
75380;HTU21D;64279;44.714;37.756;2022-11-15T06:54:41;10.72;73.00
75380;HTU21D;64279;44.714;37.756;2022-11-15T06:56:05;10.74;73.09
75380;HTU21D;64279;44.714;37.756;2022-11-15T06:57:27;10.78;72.83
75380;HTU21D;64279;44.714;37.756;2022-11-15T06:58:48;10.81;72.92
75380;HTU21D;64279;44.714;37.756;2022-11-15T07:00:09;10.83;72.99
75380;HTU21D;64279;44.714;37.756;2022-11-15T07:01:31;10.87;72.98
75380;HTU21D;64279;44.714;37.756;2022-11-15T07:02:52;10.90;72.97
75380;HTU21D;64279;44.714;37.756;2022-11-15T07:04:13;10.98;72.63
75380;HTU21D;64279;44.714;37.756;2022-11-15T07:05:35;11.01;72.67
75380;HTU21D;64279;44.714;37.756;2022-11-15T07:06:56;11.07;72.61
75380;HTU21D;64279;44.714;37.756;2022-11-15T07:08:18;11.09;72.56
75380;HTU21D;64279;44.714;37.756;2022-11-15T07:09:40;11.12;72.52
75380;HTU21D;64279;44.714;37.756;2022-11-15T07:11:03;11.15;72.48
75380;HTU21D;64279;44.714;37.756;2022-11-15T07:12:25;11.19;72.38
75380;HTU21D;64279;44.714;37.756;2022-11-15T07:13:46;11.23;72.22
75380;HTU21D;64279;44.714;37.756;2022-11-15T07:15:08;11.26;72.22
75380;HTU21D;64279;44.714;37.756;2022-11-15T07:16:31;11.29;72.10
75380;HTU21D;64279;44.714;37.756;2022-11-15T07:17:52;11.29;72.25
75380;HTU21D;64279;44.714;37.756;2022-11-15T07:19:14;11.36;72.19
75380;HTU21D;64279;44.714;37.756;2022-11-15T07:20:35;11.38;72.07
75380;HTU21D;64279;44.714;37.756;2022-11-15T07:21:56;11.42;72.06
75380;HTU21D;64279;44.714;37.756;2022-11-15T07:23:17;11.43;72.07
75380;HTU21D;64279;44.714;37.756;2022-11-15T07:24:38;11.47;71.97
75380;HTU21D;64279;44.714;37.756;2022-11-15T07:26:00;11.51;71.93
75380;HTU21D;64279;44.714;37.756;2022-11-15T07:27:21;11.54;71.52
75380;HTU21D;64279;44.714;37.756;2022-11-15T07:28:42;11.57;71.68
75380;HTU21D;64279;44.714;37.756;2022-11-15T07:30:05;11.59;71.76
75380;HTU21D;64279;44.714;37.756;2022-11-15T07:31:27;11.64;71.83
75380;HTU21D;64279;44.714;37.756;2022-11-15T07:32:53;11.68;71.68
75380;HTU21D;64279;44.714;37.756;2022-11-15T07:34:14;11.72;71.59
75380;HTU21D;64279;44.714;37.756;2022-11-15T07:35:35;11.75;71.57
75380;HTU21D;64279;44.714;37.756;2022-11-15T07:36:56;11.77;71.65
75380;HTU21D;64279;44.714;37.756;2022-11-15T07:38:17;11.81;71.64
75380;HTU21D;64279;44.714;37.756;2022-11-15T07:39:40;11.82;71.72
75380;HTU21D;64279;44.714;37.756;2022-11-15T07:41:03;11.84;71.61
75380;HTU21D;64279;44.714;37.756;2022-11-15T07:42:24;11.88;71.57
75380;HTU21D;64279;44.714;37.756;2022-11-15T07:44:05;11.91;71.62
75380;HTU21D;64279;44.714;37.756;2022-11-15T07:45:26;11.93;71.56
75380;HTU21D;64279;44.714;37.756;2022-11-15T07:46:47;11.97;71.51
75380;HTU21D;64279;44.714;37.756;2022-11-15T07:48:08;12.02;71.46
75380;HTU21D;64279;44.714;37.756;2022-11-15T07:49:29;12.03;71.45
75380;HTU21D;64279;44.714;37.756;2022-11-15T07:50:51;12.06;71.29
75380;HTU21D;64279;44.714;37.756;2022-11-15T07:52:12;12.08;71.34
75380;HTU21D;64279;44.714;37.756;2022-11-15T07:53:34;12.11;71.25
75380;HTU21D;64279;44.714;37.756;2022-11-15T07:54:55;12.16;71.24
75380;HTU21D;64279;44.714;37.756;2022-11-15T07:56:16;12.19;71.14
75380;HTU21D;64279;44.714;37.756;2022-11-15T07:57:37;12.22;71.06
75380;HTU21D;64279;44.714;37.756;2022-11-15T07:58:59;12.26;71.00
75380;HTU21D;64279;44.714;37.756;2022-11-15T08:00:21;12.29;71.06
75380;HTU21D;64279;44.714;37.756;2022-11-15T08:01:42;12.34;70.68
75380;HTU21D;64279;44.714;37.756;2022-11-15T08:03:11;12.38;70.61
75380;HTU21D;64279;44.714;37.756;2022-11-15T08:04:33;12.41;70.64
75380;HTU21D;64279;44.714;37.756;2022-11-15T08:05:54;12.42;70.52
75380;HTU21D;64279;44.714;37.756;2022-11-15T08:07:16;12.46;70.48
75380;HTU21D;64279;44.714;37.756;2022-11-15T08:08:37;12.49;70.48
75380;HTU21D;64279;44.714;37.756;2022-11-15T08:09:58;12.53;70.37
75380;HTU21D;64279;44.714;37.756;2022-11-15T08:11:21;12.58;70.28
75380;HTU21D;64279;44.714;37.756;2022-11-15T08:12:43;12.61;70.16
75380;HTU21D;64279;44.714;37.756;2022-11-15T08:14:04;12.63;70.10
75380;HTU21D;64279;44.714;37.756;2022-11-15T08:15:26;12.65;70.18
75380;HTU21D;64279;44.714;37.756;2022-11-15T08:16:47;12.69;70.05
75380;HTU21D;64279;44.714;37.756;2022-11-15T08:18:11;12.70;70.03
75380;HTU21D;64279;44.714;37.756;2022-11-15T08:19:33;12.70;70.08
75380;HTU21D;64279;44.714;37.756;2022-11-15T08:20:59;12.72;70.01
75380;HTU21D;64279;44.714;37.756;2022-11-15T08:22:20;12.73;70.32
75380;HTU21D;64279;44.714;37.756;2022-11-15T08:23:41;12.75;70.11
75380;HTU21D;64279;44.714;37.756;2022-11-15T08:25:03;12.78;70.07
75380;HTU21D;64279;44.714;37.756;2022-11-15T08:26:24;12.79;69.99
75380;HTU21D;64279;44.714;37.756;2022-11-15T08:27:55;12.81;70.06
75380;HTU21D;64279;44.714;37.756;2022-11-15T08:29:17;12.82;70.15
75380;HTU21D;64279;44.714;37.756;2022-11-15T08:30:40;12.84;70.20
75380;HTU21D;64279;44.714;37.756;2022-11-15T08:32:03;12.87;70.04
75380;HTU21D;64279;44.714;37.756;2022-11-15T08:33:25;12.90;70.13
75380;HTU21D;64279;44.714;37.756;2022-11-15T08:34:46;12.90;70.17
75380;HTU21D;64279;44.714;37.756;2022-11-15T08:36:14;12.89;70.29
75380;HTU21D;64279;44.714;37.756;2022-11-15T08:37:37;12.93;70.25
75380;HTU21D;64279;44.714;37.756;2022-11-15T08:38:58;12.96;70.16
75380;HTU21D;64279;44.714;37.756;2022-11-15T08:40:19;12.99;70.10
75380;HTU21D;64279;44.714;37.756;2022-11-15T08:41:41;13.02;70.05
75380;HTU21D;64279;44.714;37.756;2022-11-15T08:43:02;13.04;70.13
75380;HTU21D;64279;44.714;37.756;2022-11-15T08:44:24;13.07;69.90
75380;HTU21D;64279;44.714;37.756;2022-11-15T08:45:46;13.09;69.97
75380;HTU21D;64279;44.714;37.756;2022-11-15T08:47:07;13.12;70.00
75380;HTU21D;64279;44.714;37.756;2022-11-15T08:48:29;13.14;69.93
75380;HTU21D;64279;44.714;37.756;2022-11-15T08:49:51;13.17;69.92
75380;HTU21D;64279;44.714;37.756;2022-11-15T08:51:12;13.19;69.94
75380;HTU21D;64279;44.714;37.756;2022-11-15T08:52:33;13.20;69.89
75380;HTU21D;64279;44.714;37.756;2022-11-15T08:53:54;13.24;69.90
75380;HTU21D;64279;44.714;37.756;2022-11-15T08:55:16;13.26;70.04
75380;HTU21D;64279;44.714;37.756;2022-11-15T08:56:37;13.30;69.79
75380;HTU21D;64279;44.714;37.756;2022-11-15T08:57:58;13.33;69.78
75380;HTU21D;64279;44.714;37.756;2022-11-15T08:59:20;13.34;69.71
75380;HTU21D;64279;44.714;37.756;2022-11-15T09:00:41;13.37;69.71
75380;HTU21D;64279;44.714;37.756;2022-11-15T09:02:04;13.40;69.68
75380;HTU21D;64279;44.714;37.756;2022-11-15T09:03:25;13.45;69.58
75380;HTU21D;64279;44.714;37.756;2022-11-15T09:04:47;13.46;69.60